createdAt,value
2022-09-16T00:02:25.873Z,14.70
2022-09-16T00:04:53.701Z,14.70
2022-09-16T00:07:20.251Z,14.70
2022-09-16T00:09:46.760Z,14.70
2022-09-16T00:12:13.248Z,14.70
2022-09-16T00:14:39.855Z,14.70
2022-09-16T00:17:06.382Z,14.70
2022-09-16T00:19:32.974Z,14.70
2022-09-16T00:21:59.464Z,14.70
2022-09-16T00:24:25.981Z,14.70
2022-09-16T00:26:52.491Z,14.60
2022-09-16T00:29:18.975Z,14.60
2022-09-16T00:31:45.572Z,14.70
2022-09-16T00:34:12.119Z,14.60
2022-09-16T00:36:38.753Z,14.70
2022-09-16T00:39:05.283Z,14.70
2022-09-16T00:41:33.214Z,14.70
2022-09-16T00:44:04.125Z,14.70
2022-09-16T00:46:36.020Z,14.70
2022-09-16T00:49:25.859Z,14.80
2022-09-16T00:51:57.202Z,14.80
2022-09-16T00:54:24.458Z,14.80
2022-09-16T00:56:54.642Z,14.90
2022-09-16T00:59:26.567Z,14.90
2022-09-16T01:01:55.672Z,14.90
2022-09-16T01:04:36.895Z,14.90
2022-09-16T01:07:03.778Z,15.00
2022-09-16T01:09:31.428Z,15.00
2022-09-16T01:11:57.938Z,15.00
2022-09-16T01:14:45.096Z,15.00
2022-09-16T01:17:46.234Z,15.00
2022-09-16T01:20:47.048Z,14.90
2022-09-16T01:23:32.351Z,14.80
2022-09-16T01:26:14.220Z,14.70
2022-09-16T01:29:18.384Z,14.70
2022-09-16T01:32:09.489Z,14.70
2022-09-16T01:35:04.553Z,14.60
2022-09-16T01:37:57.451Z,14.50
2022-09-16T01:40:44.695Z,14.30
2022-09-16T01:43:21.679Z,14.30
2022-09-16T01:45:57.952Z,14.20
2022-09-16T01:48:30.024Z,14.20
2022-09-16T01:51:19.678Z,14.20
2022-09-16T01:54:11.207Z,14.10
2022-09-16T01:56:46.379Z,14.10
2022-09-16T01:59:28.819Z,14.10
2022-09-16T02:02:04.856Z,14.10
2022-09-16T02:04:37.575Z,14.10
2022-09-16T02:07:07.123Z,14.10
2022-09-16T02:09:38.924Z,14.10
2022-09-16T02:12:14.576Z,14.10
2022-09-16T02:14:43.728Z,14.20
2022-09-16T02:17:17.036Z,14.10
2022-09-16T02:20:00.029Z,14.10
2022-09-16T02:22:34.825Z,14.10
2022-09-16T02:25:03.344Z,14.10
2022-09-16T02:27:31.777Z,14.00
2022-09-16T02:30:05.422Z,14.00
2022-09-16T02:32:36.658Z,13.90
2022-09-16T02:35:06.243Z,13.90
2022-09-16T02:37:41.767Z,13.90
2022-09-16T02:40:25.586Z,13.80
2022-09-16T02:42:52.912Z,13.80
2022-09-16T02:45:25.015Z,13.80
2022-09-16T02:48:03.871Z,13.90
2022-09-16T02:51:10.727Z,13.80
2022-09-16T02:53:47.642Z,13.90
2022-09-16T02:56:24.319Z,13.80
2022-09-16T02:58:50.845Z,13.80
2022-09-16T03:01:19.630Z,13.80
2022-09-16T03:03:46.613Z,13.80
2022-09-16T03:06:17.536Z,13.80
2022-09-16T03:08:45.900Z,13.80
2022-09-16T03:11:40.461Z,13.70
2022-09-16T03:14:26.408Z,13.70
2022-09-16T03:17:12.325Z,13.70
2022-09-16T03:19:50.779Z,13.60
2022-09-16T03:22:32.351Z,13.80
2022-09-16T03:25:18.086Z,13.80
2022-09-16T03:28:13.972Z,13.90
2022-09-16T03:30:59.516Z,13.90
2022-09-16T03:33:48.824Z,13.90
2022-09-16T03:36:19.124Z,13.90
2022-09-16T03:38:46.546Z,14.00
2022-09-16T03:41:14.625Z,14.00
2022-09-16T03:43:41.096Z,13.90
2022-09-16T03:46:11.929Z,13.90
2022-09-16T03:48:38.447Z,13.80
2022-09-16T03:51:05.031Z,13.70
2022-09-16T03:53:31.502Z,13.70
2022-09-16T03:55:57.993Z,13.60
2022-09-16T03:58:24.461Z,13.60
2022-09-16T04:00:51.604Z,13.50
2022-09-16T04:03:18.186Z,13.50
2022-09-16T04:05:44.680Z,13.50
2022-09-16T04:08:11.851Z,13.50
2022-09-16T04:10:38.336Z,13.40
2022-09-16T04:13:04.989Z,13.40
2022-09-16T04:15:31.825Z,13.40
2022-09-16T04:18:00.139Z,13.40
2022-09-16T04:20:26.714Z,13.40
2022-09-16T04:22:53.240Z,13.40
2022-09-16T04:25:19.714Z,13.50
2022-09-16T04:27:46.301Z,13.50
2022-09-16T04:30:13.508Z,13.50
2022-09-16T04:32:40.012Z,13.60
2022-09-16T04:35:06.951Z,13.50
2022-09-16T04:37:33.950Z,13.50
2022-09-16T04:40:04.417Z,13.60
2022-09-16T04:42:31.323Z,13.60
2022-09-16T04:44:57.816Z,13.70
2022-09-16T04:47:24.338Z,13.80
2022-09-16T04:49:51.046Z,13.70
2022-09-16T04:52:17.605Z,13.70
2022-09-16T04:54:44.196Z,13.70
2022-09-16T04:57:10.686Z,13.60
2022-09-16T04:59:37.179Z,13.50
2022-09-16T05:02:03.927Z,13.40
2022-09-16T05:04:30.428Z,13.30
2022-09-16T05:06:56.929Z,13.30
2022-09-16T05:09:23.530Z,13.50
2022-09-16T05:11:50.208Z,13.60
2022-09-16T05:14:18.332Z,13.60
2022-09-16T05:16:45.776Z,13.60
2022-09-16T05:19:14.097Z,13.60
2022-09-16T05:21:41.713Z,13.50
2022-09-16T05:24:10.353Z,13.40
2022-09-16T05:26:39.993Z,13.30
2022-09-16T05:29:09.067Z,13.20
2022-09-16T05:31:37.954Z,13.20
2022-09-16T05:34:13.428Z,13.10
2022-09-16T05:36:41.890Z,13.20
2022-09-16T05:39:22.568Z,13.20
2022-09-16T05:41:50.448Z,13.20
2022-09-16T05:44:16.962Z,13.20
2022-09-16T05:46:43.756Z,13.20
2022-09-16T05:49:11.067Z,13.10
2022-09-16T05:51:38.913Z,13.20
2022-09-16T05:54:05.716Z,13.20
2022-09-16T05:56:32.588Z,13.20
2022-09-16T05:59:00.488Z,13.20
2022-09-16T06:01:30.899Z,13.30
2022-09-16T06:03:57.994Z,13.30
2022-09-16T06:06:26.970Z,13.40
2022-09-16T06:09:04.412Z,13.40
2022-09-16T06:11:31.391Z,13.40
2022-09-16T06:14:01.357Z,13.40
2022-09-16T06:16:31.998Z,13.40
2022-09-16T06:18:59.946Z,13.50
2022-09-16T06:21:26.885Z,13.60
2022-09-16T06:23:53.846Z,13.70
2022-09-16T06:26:23.364Z,13.90
2022-09-16T06:28:50.901Z,14.00
2022-09-16T06:31:20.098Z,14.10
2022-09-16T06:33:47.646Z,14.20
2022-09-16T06:36:32.434Z,14.40
2022-09-16T06:38:59.162Z,14.60
2022-09-16T06:41:25.749Z,14.80
2022-09-16T06:43:52.610Z,15.00
2022-09-16T06:46:24.240Z,15.20
2022-09-16T06:48:53.848Z,15.40
2022-09-16T06:51:31.544Z,15.40
2022-09-16T06:54:04.026Z,15.40
2022-09-16T06:56:31.102Z,15.30
2022-09-16T06:58:57.629Z,15.40
2022-09-16T07:01:29.639Z,15.60
2022-09-16T07:03:58.196Z,15.80
2022-09-16T07:06:45.227Z,16.30
2022-09-16T07:09:14.428Z,17.00
2022-09-16T07:11:40.947Z,17.90
2022-09-16T07:14:08.176Z,18.50
2022-09-16T07:16:34.774Z,19.20
2022-09-16T07:19:01.649Z,19.70
2022-09-16T07:21:30.094Z,20.20
2022-09-16T07:23:59.452Z,20.40
2022-09-16T07:26:27.152Z,20.40
2022-09-16T07:28:54.853Z,20.40
2022-09-16T07:31:27.151Z,20.20
2022-09-16T07:33:58.974Z,20.20
2022-09-16T07:36:30.363Z,20.40
2022-09-16T07:38:58.578Z,20.80
2022-09-16T07:41:29.234Z,21.10
2022-09-16T07:43:59.937Z,21.60
2022-09-16T07:49:23.495Z,22.50
2022-09-16T07:51:50.014Z,22.60
2022-09-16T07:54:32.508Z,22.90
2022-09-16T07:57:15.394Z,23.20
2022-09-16T07:59:46.883Z,23.40
2022-09-16T08:02:20.715Z,23.80
2022-09-16T08:04:47.505Z,24.20
2022-09-16T08:07:30.325Z,24.30
2022-09-16T08:09:57.004Z,24.40
2022-09-16T08:12:38.300Z,24.50
2022-09-16T08:15:07.637Z,24.30
2022-09-16T08:17:34.202Z,24.10
2022-09-16T08:20:16.318Z,23.40
2022-09-16T08:22:52.753Z,22.80
2022-09-16T08:25:21.536Z,22.40
2022-09-16T08:28:22.460Z,22.20
2022-09-16T08:31:10.701Z,22.30
2022-09-16T08:33:40.263Z,23.40
2022-09-16T08:42:39.304Z,22.40
2022-09-16T08:45:24.380Z,22.00
2022-09-16T08:48:28.671Z,24.80
2022-09-16T08:51:00.834Z,26.80
2022-09-16T08:53:56.925Z,29.20
2022-09-16T08:56:29.676Z,30.80
2022-09-16T08:59:11.844Z,33.00
2022-09-16T09:02:11.960Z,34.30
2022-09-16T09:04:38.824Z,36.40
2022-09-16T09:07:30.880Z,34.80
2022-09-16T09:10:25.302Z,34.80
2022-09-16T09:13:30.924Z,35.20
2022-09-16T09:16:13.355Z,35.60
2022-09-16T09:18:57.046Z,36.50
2022-09-16T09:22:10.823Z,37.90
2022-09-16T09:25:16.911Z,36.20
2022-09-16T09:28:35.722Z,33.40
2022-09-16T09:31:23.523Z,30.90
2022-09-16T09:34:21.237Z,32.30
2022-09-16T09:37:08.626Z,34.00
2022-09-16T09:39:41.528Z,32.30
2022-09-16T09:42:31.801Z,30.50
2022-09-16T09:45:09.788Z,28.80
2022-09-16T09:47:48.886Z,27.00
2022-09-16T09:50:48.829Z,25.80
2022-09-16T09:53:31.618Z,25.00
2022-09-16T09:56:33.733Z,24.50
2022-09-16T10:02:30.508Z,26.90
2022-09-16T10:07:52.216Z,24.60
2022-09-16T10:10:37.833Z,23.40
2022-09-16T10:13:13.058Z,22.70
2022-09-16T10:15:46.339Z,21.80
2022-09-16T10:18:32.626Z,21.40
2022-09-16T10:21:32.844Z,21.10
2022-09-16T10:24:03.094Z,20.90
2022-09-16T10:26:29.717Z,20.70
2022-09-16T10:29:19.941Z,20.50
2022-09-16T10:31:54.060Z,20.60
2022-09-16T10:34:38.994Z,20.70
2022-09-16T10:37:13.820Z,20.60
2022-09-16T10:39:44.683Z,20.30
2022-09-16T10:42:23.164Z,20.20
2022-09-16T10:44:56.065Z,20.10
2022-09-16T10:47:36.099Z,20.10
2022-09-16T10:50:11.605Z,20.20
2022-09-16T10:52:59.695Z,20.30
2022-09-16T10:55:30.829Z,20.30
2022-09-16T10:58:18.224Z,20.40
2022-09-16T11:01:21.940Z,20.50
2022-09-16T11:04:08.335Z,20.60
2022-09-16T11:06:40.952Z,22.80
2022-09-16T11:09:38.728Z,26.10
2022-09-16T11:12:48.731Z,29.10
2022-09-16T11:15:47.725Z,31.40
2022-09-16T11:21:43.636Z,29.70
2022-09-16T11:24:25.350Z,29.20
2022-09-16T11:27:02.009Z,28.70
2022-09-16T11:30:00.509Z,27.40
2022-09-16T11:32:48.520Z,26.00
2022-09-16T11:35:27.459Z,25.20
2022-09-16T11:38:18.523Z,24.50
2022-09-16T11:41:05.535Z,23.60
2022-09-16T11:43:53.636Z,22.90
2022-09-16T11:46:40.894Z,22.40
2022-09-16T12:00:09.252Z,18.50
2022-09-16T12:03:16.404Z,17.70
2022-09-16T12:06:02.097Z,17.10
2022-09-16T12:08:52.676Z,16.40
2022-09-16T12:11:34.545Z,15.90
2022-09-16T12:14:14.485Z,15.60
2022-09-16T12:16:56.271Z,15.60
2022-09-16T12:19:47.410Z,15.60
2022-09-16T12:22:51.086Z,15.70
2022-09-16T12:25:28.456Z,15.70
2022-09-16T12:28:14.650Z,15.80
2022-09-16T12:30:52.504Z,15.90
2022-09-16T12:33:48.097Z,16.20
2022-09-16T12:36:23.814Z,16.20
2022-09-16T12:38:52.638Z,16.40
2022-09-16T12:41:25.480Z,16.80
2022-09-16T12:44:36.395Z,17.20
2022-09-16T12:47:27.841Z,17.80
2022-09-16T12:50:12.151Z,18.00
2022-09-16T12:56:28.265Z,18.80
2022-09-16T12:59:18.032Z,19.10
2022-09-16T13:02:02.030Z,19.00
2022-09-16T13:04:49.154Z,19.00
2022-09-16T13:07:24.599Z,18.90
2022-09-16T13:10:16.966Z,18.90
2022-09-16T13:12:55.056Z,19.00
2022-09-16T13:16:10.765Z,19.20
2022-09-16T13:18:49.896Z,19.20
2022-09-16T13:21:19.539Z,19.50
2022-09-16T13:33:29.038Z,19.50
2022-09-16T13:36:15.646Z,19.60
2022-09-16T13:38:52.787Z,19.50
2022-09-16T13:41:32.931Z,19.50
2022-09-16T13:43:59.973Z,19.40
2022-09-16T13:46:33.263Z,19.80
2022-09-16T13:49:02.854Z,19.70
2022-09-16T13:51:35.887Z,19.30
2022-09-16T13:54:04.222Z,18.90
2022-09-16T13:56:50.063Z,18.70
2022-09-16T14:03:04.765Z,18.40
2022-09-16T14:06:09.145Z,18.20
2022-09-16T14:08:57.869Z,18.00
2022-09-16T14:12:02.390Z,17.80
2022-09-16T14:14:47.698Z,17.60
2022-09-16T14:17:39.889Z,17.70
2022-09-16T14:20:15.845Z,17.70
2022-09-16T14:22:44.479Z,17.80
2022-09-16T14:25:35.976Z,18.00
2022-09-16T14:28:31.720Z,18.20
2022-09-16T14:31:06.058Z,18.40
2022-09-16T14:36:58.097Z,18.80
2022-09-16T14:39:28.271Z,19.00
2022-09-16T14:42:06.572Z,19.10
2022-09-16T14:45:03.648Z,19.40
2022-09-16T14:47:53.282Z,19.50
2022-09-16T14:50:33.082Z,19.40
2022-09-16T14:53:02.025Z,19.10
2022-09-16T14:55:30.984Z,19.00
2022-09-16T14:58:05.850Z,18.90
2022-09-16T15:00:53.231Z,18.80
2022-09-16T15:03:42.055Z,18.90
2022-09-16T15:06:16.877Z,19.10
2022-09-16T15:12:08.536Z,19.50
2022-09-16T15:14:38.450Z,19.50
2022-09-16T15:17:05.022Z,19.40
2022-09-16T15:19:37.202Z,18.80
2022-09-16T15:22:06.351Z,18.10
2022-09-16T15:24:34.127Z,17.30
2022-09-16T15:27:01.635Z,16.80
2022-09-16T15:29:35.052Z,16.50
2022-09-16T15:32:20.867Z,16.20
2022-09-16T15:34:47.936Z,16.00
2022-09-16T15:37:33.259Z,15.90
2022-09-16T15:40:30.477Z,15.80
2022-09-16T15:43:21.714Z,15.70
2022-09-16T15:46:01.567Z,15.60
2022-09-16T15:48:36.440Z,15.60
2022-09-16T15:51:09.370Z,15.60
2022-09-16T15:53:41.739Z,15.50
2022-09-16T15:56:32.453Z,15.40
2022-09-16T15:59:06.864Z,15.30
2022-09-16T16:01:39.138Z,15.20
2022-09-16T16:04:09.192Z,15.10
2022-09-16T16:06:52.269Z,15.10
2022-09-16T16:09:28.145Z,15.00
2022-09-16T16:11:56.043Z,14.90
2022-09-16T16:14:23.960Z,15.00
2022-09-16T16:17:11.867Z,15.00
2022-09-16T16:19:41.596Z,15.00
2022-09-16T16:22:09.014Z,15.00
2022-09-16T16:24:35.937Z,15.10
2022-09-16T16:27:03.886Z,15.10
2022-09-16T16:29:30.540Z,15.20
2022-09-16T16:32:06.804Z,15.20
2022-09-16T16:34:38.926Z,15.20
2022-09-16T16:37:07.411Z,15.10
2022-09-16T16:39:34.489Z,15.20
2022-09-16T16:42:01.931Z,15.10
2022-09-16T16:44:28.430Z,15.10
2022-09-16T16:46:56.228Z,15.10
2022-09-16T16:49:23.645Z,15.10
2022-09-16T16:51:54.954Z,15.20
2022-09-16T16:54:22.150Z,15.20
2022-09-16T16:56:49.147Z,15.10
2022-09-16T16:59:16.587Z,15.00
2022-09-16T17:01:48.580Z,15.00
2022-09-16T17:04:15.925Z,14.90
2022-09-16T17:06:42.479Z,14.80
2022-09-16T17:09:15.563Z,14.60
2022-09-16T17:11:57.510Z,14.50
2022-09-16T17:14:26.412Z,14.40
2022-09-16T17:16:54.832Z,14.30
2022-09-16T17:19:23.539Z,14.20
2022-09-16T17:21:50.644Z,14.10
2022-09-16T17:24:18.292Z,14.00
2022-09-16T17:26:45.793Z,14.00
2022-09-16T17:29:15.901Z,13.90
2022-09-16T17:31:43.551Z,13.80
2022-09-16T17:34:12.999Z,13.80
2022-09-16T17:36:43.154Z,13.60
2022-09-16T17:39:20.561Z,13.60
2022-09-16T17:41:51.365Z,13.50
2022-09-16T17:44:18.895Z,13.50
2022-09-16T17:46:47.226Z,13.40
2022-09-16T17:49:15.683Z,13.40
2022-09-16T17:51:43.032Z,13.30
2022-09-16T17:54:10.211Z,13.30
2022-09-16T17:56:36.838Z,13.20
2022-09-16T17:59:03.508Z,13.10
2022-09-16T18:01:30.660Z,13.00
2022-09-16T18:03:57.548Z,13.00
2022-09-16T18:06:28.208Z,13.00
2022-09-16T18:08:55.309Z,12.90
2022-09-16T18:11:22.555Z,12.80
2022-09-16T18:13:55.007Z,12.90
2022-09-16T18:16:22.076Z,12.90
2022-09-16T18:18:54.548Z,12.80
2022-09-16T18:21:23.705Z,12.80
2022-09-16T18:23:57.826Z,12.70
2022-09-16T18:26:25.086Z,12.70
2022-09-16T18:31:42.042Z,12.50
2022-09-16T18:34:09.265Z,12.50
2022-09-16T18:36:37.424Z,12.50
2022-09-16T18:39:04.959Z,12.50
2022-09-16T18:41:35.504Z,12.50
2022-09-16T18:44:05.059Z,12.50
2022-09-16T18:46:33.401Z,12.50
2022-09-16T18:49:00.531Z,12.50
2022-09-16T18:51:29.317Z,12.50
2022-09-16T18:54:00.481Z,12.40
2022-09-16T18:56:29.210Z,12.40
2022-09-16T18:59:29.186Z,12.30
2022-09-16T19:01:48.640Z,12.20
2022-09-16T19:04:17.702Z,12.20
2022-09-16T19:06:46.567Z,12.10
2022-09-16T19:09:15.946Z,12.10
2022-09-16T19:11:42.717Z,12.10
2022-09-16T19:14:12.312Z,12.00
2022-09-16T19:16:40.431Z,11.90
2022-09-16T19:19:08.638Z,11.80
2022-09-16T19:21:35.957Z,11.70
2022-09-16T19:24:05.712Z,11.60
2022-09-16T19:26:34.984Z,11.50
2022-09-16T19:29:01.558Z,11.50
2022-09-16T19:31:29.250Z,11.40
2022-09-16T19:33:56.222Z,11.40
2022-09-16T19:36:25.240Z,11.40
2022-09-16T19:38:52.624Z,11.40
2022-09-16T19:41:21.769Z,11.40
2022-09-16T19:43:52.649Z,11.40
2022-09-16T19:46:19.201Z,11.40
2022-09-16T19:48:50.648Z,11.30
2022-09-16T19:51:19.520Z,11.20
2022-09-16T19:53:48.693Z,11.20
2022-09-16T19:56:18.600Z,11.20
2022-09-16T19:58:45.622Z,11.10
2022-09-16T20:01:15.495Z,11.10
2022-09-16T20:03:45.635Z,11.10
2022-09-16T20:06:15.581Z,11.10
2022-09-16T20:08:43.455Z,11.10
2022-09-16T20:11:17.059Z,11.00
2022-09-16T20:13:56.839Z,11.00
2022-09-16T20:16:26.121Z,11.00
2022-09-16T20:18:53.043Z,10.90
2022-09-16T20:21:21.750Z,10.90
2022-09-16T20:23:49.183Z,10.90
2022-09-16T20:26:19.572Z,10.80
2022-09-16T20:28:50.177Z,10.80
2022-09-16T20:31:20.360Z,10.80
2022-09-16T20:33:47.205Z,10.80
2022-09-16T20:36:16.913Z,10.80
2022-09-16T20:38:44.597Z,10.70
2022-09-16T20:41:20.084Z,10.70
2022-09-16T20:43:47.695Z,10.60
2022-09-16T20:46:18.363Z,10.60
2022-09-16T20:48:45.667Z,10.50
2022-09-16T20:51:17.725Z,10.40
2022-09-16T20:53:49.582Z,10.40
2022-09-16T20:56:17.407Z,10.30
2022-09-16T20:58:44.189Z,10.30
2022-09-16T21:01:13.492Z,10.20
2022-09-16T21:03:40.364Z,10.20
2022-09-16T21:06:13.082Z,10.30
2022-09-16T21:08:40.076Z,10.30
2022-09-16T21:11:11.429Z,10.40
2022-09-16T21:13:39.928Z,10.40
2022-09-16T21:16:07.207Z,10.50
2022-09-16T21:18:34.214Z,10.50
2022-09-16T21:21:06.667Z,10.50
2022-09-16T21:23:34.508Z,10.50
2022-09-16T21:26:14.047Z,10.40
2022-09-16T21:28:41.660Z,10.50
2022-09-16T21:31:13.165Z,10.40
2022-09-16T21:33:41.470Z,10.40
2022-09-16T21:36:11.219Z,10.40
2022-09-16T21:38:38.476Z,10.40
2022-09-16T21:41:08.045Z,10.30
2022-09-16T21:43:39.172Z,10.30
2022-09-16T21:46:09.891Z,10.20
2022-09-16T21:48:37.349Z,10.20
2022-09-16T21:51:10.166Z,10.20
2022-09-16T21:53:37.941Z,10.20
2022-09-16T21:56:05.969Z,10.20
2022-09-16T21:58:33.129Z,10.20
2022-09-16T22:01:30.163Z,10.20
2022-09-16T22:04:22.989Z,10.20
2022-09-16T22:06:50.977Z,10.20
2022-09-16T22:09:17.812Z,10.20
2022-09-16T22:11:44.585Z,10.20
2022-09-16T22:14:11.561Z,10.10
2022-09-16T22:16:38.708Z,10.20
2022-09-16T22:19:11.242Z,10.10
2022-09-16T22:21:41.099Z,10.20
2022-09-16T22:24:08.454Z,10.20
2022-09-16T22:26:35.793Z,10.20
2022-09-16T22:29:02.515Z,10.20
2022-09-16T22:31:31.322Z,10.20
2022-09-16T22:34:00.380Z,10.20
2022-09-16T22:36:29.068Z,10.20
2022-09-16T22:39:00.663Z,10.20
2022-09-16T22:41:28.624Z,10.20
2022-09-16T22:43:55.215Z,10.10
2022-09-16T22:46:23.225Z,10.10
2022-09-16T22:48:50.549Z,10.00
2022-09-16T22:51:18.459Z,10.00
2022-09-16T22:53:45.586Z,10.00
2022-09-16T22:56:15.206Z,10.00
2022-09-16T22:58:44.029Z,10.00
2022-09-16T23:01:16.626Z,10.00
2022-09-16T23:03:44.656Z,10.00
2022-09-16T23:06:13.416Z,10.00
2022-09-16T23:08:42.605Z,10.00
2022-09-16T23:11:14.391Z,9.90
2022-09-16T23:13:45.100Z,9.80
2022-09-16T23:16:20.892Z,9.80
2022-09-16T23:18:47.822Z,9.80
2022-09-16T23:21:16.796Z,9.80
2022-09-16T23:23:45.422Z,9.80
2022-09-16T23:26:19.549Z,9.90
2022-09-16T23:28:47.488Z,9.90
2022-09-16T23:31:16.063Z,9.90
2022-09-16T23:33:43.892Z,9.90
2022-09-16T23:36:12.919Z,9.90
2022-09-16T23:38:40.735Z,9.90
2022-09-16T23:41:13.258Z,9.90
2022-09-16T23:43:43.764Z,10.00
2022-09-16T23:46:14.052Z,10.10
2022-09-16T23:48:41.123Z,10.10
2022-09-16T23:51:07.918Z,10.10
2022-09-16T23:53:35.343Z,10.10
2022-09-16T23:56:10.513Z,10.10
2022-09-16T23:58:37.275Z,10.00
